createdAt,value
2022-09-20T00:00:46.831Z,100250.81
2022-09-20T00:03:14.838Z,100251.41
2022-09-20T00:05:43.765Z,100254.94
2022-09-20T00:08:15.413Z,100256.81
2022-09-20T00:10:42.913Z,100253.19
2022-09-20T00:13:11.401Z,100247.13
2022-09-20T00:15:45.070Z,100252.28
2022-09-20T00:18:12.552Z,100249.66
2022-09-20T00:20:46.739Z,100261.94
2022-09-20T00:23:13.347Z,100253.28
2022-09-20T00:25:39.702Z,100254.78
2022-09-20T00:28:06.536Z,100259.81
2022-09-20T00:30:33.944Z,100232.63
2022-09-20T00:33:00.819Z,100236.47
2022-09-20T00:35:29.386Z,100233.78
2022-09-20T00:37:56.168Z,100262.81
2022-09-20T00:40:24.045Z,100239.44
2022-09-20T00:42:50.830Z,100257.03
2022-09-20T00:45:28.678Z,100234.56
2022-09-20T00:47:54.936Z,100260.75
2022-09-20T00:50:30.574Z,100258.38
2022-09-20T00:53:04.975Z,100262.06
2022-09-20T00:55:32.194Z,100258.72
2022-09-20T00:57:59.286Z,100258.97
2022-09-20T01:00:26.417Z,100260.28
2022-09-20T01:02:57.573Z,100252.34
2022-09-20T01:05:24.344Z,100251.44
2022-09-20T01:07:51.685Z,100241.31
2022-09-20T01:10:18.566Z,100243.13
2022-09-20T01:12:46.100Z,100239.69
2022-09-20T01:15:13.218Z,100257.31
2022-09-20T01:17:44.228Z,100257.37
2022-09-20T01:20:22.423Z,100253.94
2022-09-20T01:23:04.982Z,100251.25
2022-09-20T01:25:49.588Z,100246.31
2022-09-20T01:28:16.435Z,100249.28
2022-09-20T01:30:46.565Z,100246.41
2022-09-20T01:33:48.301Z,100247.03
2022-09-20T01:36:21.623Z,100252.06
2022-09-20T01:38:59.107Z,100243.47
2022-09-20T01:41:47.948Z,100247.78
2022-09-20T01:44:52.034Z,100247.88
2022-09-20T01:47:30.462Z,100249.72
2022-09-20T01:50:01.886Z,100251.56
2022-09-20T01:52:38.704Z,100251.75
2022-09-20T01:55:32.691Z,100256.09
2022-09-20T01:58:36.758Z,100254.44
2022-09-20T02:01:40.518Z,100256.28
2022-09-20T02:04:48.990Z,100248.47
2022-09-20T02:07:35.089Z,100255.28
2022-09-20T02:10:38.243Z,100253.25
2022-09-20T02:13:24.986Z,100256.59
2022-09-20T02:16:36.098Z,100253.66
2022-09-20T02:19:20.820Z,100252.06
2022-09-20T02:22:13.880Z,100253.09
2022-09-20T02:24:49.366Z,100252.69
2022-09-20T02:27:41.059Z,100251.97
2022-09-20T02:30:20.682Z,100260.97
2022-09-20T02:33:17.691Z,100264.50
2022-09-20T02:36:31.155Z,100266.16
2022-09-20T02:39:15.796Z,100261.25
2022-09-20T02:42:05.188Z,100272.56
2022-09-20T02:44:34.488Z,100270.31
2022-09-20T02:47:09.932Z,100283.50
2022-09-20T02:49:54.959Z,100280.16
2022-09-20T02:52:47.210Z,100271.25
2022-09-20T02:55:18.918Z,100280.13
2022-09-20T02:58:14.846Z,100276.12
2022-09-20T03:01:02.776Z,100281.41
2022-09-20T03:03:55.579Z,100283.50
2022-09-20T03:06:54.068Z,100288.88
2022-09-20T03:09:41.928Z,100286.47
2022-09-20T03:12:46.952Z,100285.69
2022-09-20T03:15:23.271Z,100281.50
2022-09-20T03:17:53.485Z,100279.75
2022-09-20T03:20:22.530Z,100290.91
2022-09-20T03:22:59.167Z,100293.25
2022-09-20T03:25:39.394Z,100293.09
2022-09-20T03:28:29.826Z,100278.84
2022-09-20T03:31:04.639Z,100285.53
2022-09-20T03:33:58.737Z,100296.44
2022-09-20T03:36:28.103Z,100295.59
2022-09-20T03:39:08.098Z,100307.69
2022-09-20T03:41:49.645Z,100302.56
2022-09-20T03:44:31.824Z,100301.66
2022-09-20T03:47:19.886Z,100303.25
2022-09-20T03:50:06.907Z,100301.53
2022-09-20T03:52:41.283Z,100306.50
2022-09-20T03:55:16.207Z,100303.91
2022-09-20T03:58:08.627Z,100306.50
2022-09-20T04:01:00.828Z,100312.38
2022-09-20T04:03:42.545Z,100307.09
2022-09-20T04:06:34.001Z,100312.28
2022-09-20T04:09:00.407Z,100297.84
2022-09-20T04:11:53.598Z,100308.84
2022-09-20T04:14:44.171Z,100317.41
2022-09-20T04:17:32.436Z,100314.78
2022-09-20T04:20:02.827Z,100315.91
2022-09-20T04:22:29.677Z,100319.44
2022-09-20T04:25:05.276Z,100319.25
2022-09-20T04:27:54.697Z,100326.16
2022-09-20T04:30:24.227Z,100332.94
2022-09-20T04:33:22.966Z,100315.91
2022-09-20T04:36:28.736Z,100319.38
2022-09-20T04:39:20.657Z,100335.28
2022-09-20T04:42:15.283Z,100300.47
2022-09-20T04:44:47.873Z,100305.31
2022-09-20T04:47:51.076Z,100324.69
2022-09-20T04:50:38.911Z,100328.87
2022-09-20T04:53:24.798Z,100326.22
2022-09-20T04:56:21.445Z,100336.69
2022-09-20T04:59:08.319Z,100333.44
2022-09-20T05:01:51.879Z,100337.03
2022-09-20T05:04:27.019Z,100322.72
2022-09-20T05:07:12.382Z,100339.41
2022-09-20T05:10:07.306Z,100341.00
2022-09-20T05:12:43.114Z,100339.25
2022-09-20T05:15:32.219Z,100344.44
2022-09-20T05:18:27.379Z,100341.66
2022-09-20T05:21:08.962Z,100354.16
2022-09-20T05:24:14.355Z,100353.28
2022-09-20T05:26:59.832Z,100347.38
2022-09-20T05:29:29.630Z,100341.59
2022-09-20T05:32:12.150Z,100347.19
2022-09-20T05:35:08.767Z,100329.63
2022-09-20T05:38:01.269Z,100340.91
2022-09-20T05:40:56.120Z,100347.62
2022-09-20T05:44:01.081Z,100358.69
2022-09-20T05:46:34.489Z,100350.38
2022-09-20T05:49:35.750Z,100348.91
2022-09-20T05:52:17.144Z,100353.44
2022-09-20T05:54:56.027Z,100355.09
2022-09-20T05:57:47.228Z,100339.25
2022-09-20T06:00:16.975Z,100360.03
2022-09-20T06:02:47.671Z,100347.59
2022-09-20T06:05:26.999Z,100366.66
2022-09-20T06:08:30.763Z,100366.63
2022-09-20T06:11:08.519Z,100359.37
2022-09-20T06:14:27.592Z,100357.78
2022-09-20T06:17:21.517Z,100355.69
2022-09-20T06:19:58.995Z,100358.22
2022-09-20T06:22:31.399Z,100351.31
2022-09-20T06:25:12.549Z,100361.19
2022-09-20T06:28:07.385Z,100338.87
2022-09-20T06:30:41.527Z,100371.94
2022-09-20T06:33:20.404Z,100378.47
2022-09-20T06:36:20.541Z,100365.87
2022-09-20T06:39:27.560Z,100361.66
2022-09-20T06:41:57.758Z,100380.31
2022-09-20T06:44:25.738Z,100367.62
2022-09-20T06:46:55.006Z,100362.16
2022-09-20T06:49:22.634Z,100345.50
2022-09-20T06:51:52.408Z,100369.31
2022-09-20T06:54:20.516Z,100381.88
2022-09-20T06:56:47.904Z,100380.38
2022-09-20T06:59:15.231Z,100382.22
2022-09-20T07:01:42.221Z,100384.81
2022-09-20T07:04:11.583Z,100383.69
2022-09-20T07:06:37.910Z,100376.78
2022-09-20T07:09:04.773Z,100385.97
2022-09-20T07:11:32.671Z,100392.34
2022-09-20T07:13:59.418Z,100393.00
2022-09-20T07:16:26.457Z,100394.66
2022-09-20T07:18:53.278Z,100394.53
2022-09-20T07:21:20.973Z,100404.25
2022-09-20T07:23:51.225Z,100413.50
2022-09-20T07:26:22.813Z,100414.13
2022-09-20T07:28:50.126Z,100427.63
2022-09-20T07:31:18.321Z,100419.16
2022-09-20T07:33:44.904Z,100427.72
2022-09-20T07:36:14.684Z,100432.38
2022-09-20T07:38:42.031Z,100366.56
2022-09-20T07:41:09.572Z,100430.59
2022-09-20T07:43:36.083Z,100438.50
2022-09-20T07:46:02.702Z,100423.22
2022-09-20T07:48:31.619Z,100437.34
2022-09-20T07:51:18.150Z,100439.69
2022-09-20T07:53:44.806Z,100436.87
2022-09-20T07:56:15.703Z,100439.50
2022-09-20T07:58:43.070Z,100434.41
2022-09-20T08:01:12.648Z,100436.19
2022-09-20T08:03:39.593Z,100440.69
2022-09-20T08:06:09.348Z,100437.03
2022-09-20T08:08:38.097Z,100448.44
2022-09-20T08:11:09.308Z,100443.00
2022-09-20T08:16:24.091Z,100444.50
2022-09-20T08:18:58.919Z,100422.66
2022-09-20T08:21:27.390Z,100437.72
2022-09-20T08:23:53.918Z,100441.69
2022-09-20T08:26:23.511Z,100447.16
2022-09-20T08:28:55.127Z,100437.81
2022-09-20T08:31:26.338Z,100433.78
2022-09-20T08:33:56.554Z,100431.56
2022-09-20T08:36:24.637Z,100441.59
2022-09-20T08:42:11.045Z,100450.84
2022-09-20T08:45:04.734Z,100451.41
2022-09-20T08:48:00.955Z,100446.66
2022-09-20T08:50:27.763Z,100450.41
2022-09-20T08:53:01.383Z,100430.41
2022-09-20T08:55:39.678Z,100432.28
2022-09-20T08:58:09.603Z,100431.75
2022-09-20T09:00:40.360Z,100447.03
2022-09-20T09:03:11.753Z,100444.16
2022-09-20T09:05:43.146Z,100450.25
2022-09-20T09:08:16.254Z,100450.37
2022-09-20T09:10:54.865Z,100450.31
2022-09-20T09:13:33.053Z,100449.50
2022-09-20T09:16:03.323Z,100441.63
2022-09-20T09:18:35.985Z,100439.12
2022-09-20T09:21:05.626Z,100426.63
2022-09-20T09:23:41.212Z,100434.34
2022-09-20T09:26:19.676Z,100434.41
2022-09-20T09:28:46.343Z,100436.59
2022-09-20T09:31:16.436Z,100437.88
2022-09-20T09:33:46.981Z,100437.53
2022-09-20T09:36:33.312Z,100435.31
2022-09-20T09:39:23.138Z,100433.91
2022-09-20T09:41:51.060Z,100434.38
2022-09-20T09:44:24.538Z,100431.16
2022-09-20T09:46:53.497Z,100429.72
2022-09-20T09:49:25.230Z,100424.97
2022-09-20T09:52:06.832Z,100427.47
2022-09-20T09:54:38.471Z,100424.97
2022-09-20T09:57:23.854Z,100423.50
2022-09-20T10:00:09.317Z,100420.09
2022-09-20T10:03:05.094Z,100433.16
2022-09-20T10:05:53.055Z,100428.25
2022-09-20T10:08:57.172Z,100431.75
2022-09-20T10:11:41.969Z,100423.84
2022-09-20T10:14:36.766Z,100419.78
2022-09-20T10:17:34.852Z,100424.78
2022-09-20T10:20:38.970Z,100427.06
2022-09-20T10:23:45.195Z,100430.06
2022-09-20T10:26:27.021Z,100435.00
2022-09-20T10:29:11.554Z,100424.34
2022-09-20T10:31:58.784Z,100426.44
2022-09-20T10:34:50.424Z,100427.84
2022-09-20T10:37:35.454Z,100412.28
2022-09-20T10:40:22.956Z,100399.94
2022-09-20T10:43:12.669Z,100419.75
2022-09-20T10:46:14.455Z,100410.50
2022-09-20T10:48:48.648Z,100431.62
2022-09-20T10:51:46.805Z,100414.56
2022-09-20T10:54:19.950Z,100422.78
2022-09-20T10:56:51.757Z,100427.31
2022-09-20T10:59:38.755Z,100427.69
2022-09-20T11:02:38.797Z,100424.59
2022-09-20T11:05:26.378Z,100424.56
2022-09-20T11:08:19.109Z,100414.31
2022-09-20T11:10:50.154Z,100419.00
2022-09-20T11:13:19.786Z,100421.72
2022-09-20T11:15:55.893Z,100418.69
2022-09-20T11:18:45.206Z,100418.34
2022-09-20T11:21:27.774Z,100407.09
2022-09-20T11:24:02.714Z,100405.19
2022-09-20T11:26:39.291Z,100408.09
2022-09-20T11:29:28.895Z,100409.66
2022-09-20T11:32:15.904Z,100406.81
2022-09-20T11:34:49.686Z,100396.66
2022-09-20T11:37:17.382Z,100377.97
2022-09-20T11:39:56.465Z,100407.41
2022-09-20T11:42:30.493Z,100391.69
2022-09-20T11:44:56.851Z,100396.69
2022-09-20T11:47:53.323Z,100392.41
2022-09-20T11:51:03.756Z,100394.19
2022-09-20T11:53:38.771Z,100397.97
2022-09-20T11:56:23.554Z,100399.81
2022-09-20T11:58:51.217Z,100395.63
2022-09-20T12:01:29.817Z,100398.00
2022-09-20T12:04:27.827Z,100385.38
2022-09-20T12:06:48.154Z,100395.12
2022-09-20T12:09:34.813Z,100385.59
2022-09-20T12:12:14.578Z,100392.44
2022-09-20T12:14:54.741Z,100382.72
2022-09-20T12:17:45.953Z,100388.31
2022-09-20T12:20:44.788Z,100385.47
2022-09-20T12:23:45.146Z,100387.09
2022-09-20T12:26:13.420Z,100383.94
2022-09-20T12:28:44.662Z,100386.53
2022-09-20T12:31:26.509Z,100380.50
2022-09-20T12:34:15.431Z,100375.78
2022-09-20T12:36:46.592Z,100377.31
2022-09-20T12:39:16.259Z,100373.22
2022-09-20T12:41:48.468Z,100382.03
2022-09-20T12:44:28.815Z,100378.56
2022-09-20T12:47:06.346Z,100388.41
2022-09-20T12:50:03.882Z,100388.78
2022-09-20T12:52:57.725Z,100382.50
2022-09-20T12:55:27.478Z,100385.53
2022-09-20T12:58:15.216Z,100378.25
2022-09-20T13:00:55.946Z,100384.84
2022-09-20T13:03:41.759Z,100383.09
2022-09-20T13:06:10.679Z,100384.78
2022-09-20T13:08:48.812Z,100376.69
2022-09-20T13:11:18.363Z,100377.44
2022-09-20T13:14:09.575Z,100357.91
2022-09-20T13:16:36.072Z,100373.19
2022-09-20T13:19:18.644Z,100368.12
2022-09-20T13:21:54.382Z,100367.16
2022-09-20T13:24:20.948Z,100365.84
2022-09-20T13:26:48.247Z,100368.38
2022-09-20T13:29:31.847Z,100376.47
2022-09-20T13:32:25.471Z,100380.63
2022-09-20T13:35:09.986Z,100374.50
2022-09-20T13:37:38.606Z,100372.59
2022-09-20T13:40:06.754Z,100368.00
2022-09-20T13:42:35.587Z,100379.56
2022-09-20T13:45:04.253Z,100370.53
2022-09-20T13:47:32.371Z,100386.06
2022-09-20T13:50:08.292Z,100402.28
2022-09-20T13:52:45.147Z,100416.84
2022-09-20T13:55:33.163Z,100424.88
2022-09-20T13:58:03.164Z,100448.69
2022-09-20T14:00:31.082Z,100450.13
2022-09-20T14:02:57.995Z,100444.19
2022-09-20T14:05:26.550Z,100444.63
2022-09-20T14:07:53.803Z,100438.56
2022-09-20T14:10:37.880Z,100434.50
2022-09-20T14:13:08.499Z,100431.38
2022-09-20T14:15:41.762Z,100422.22
2022-09-20T14:18:16.581Z,100428.66
2022-09-20T14:20:46.495Z,100426.69
2022-09-20T14:23:30.850Z,100430.25
2022-09-20T14:26:15.923Z,100432.97
2022-09-20T14:28:45.229Z,100431.84
2022-09-20T14:31:15.693Z,100423.72
2022-09-20T14:33:44.830Z,100433.44
2022-09-20T14:36:26.452Z,100434.31
2022-09-20T14:39:02.755Z,100446.50
2022-09-20T14:41:37.833Z,100421.56
2022-09-20T14:44:06.132Z,100432.06
2022-09-20T14:46:35.808Z,100430.59
2022-09-20T14:49:23.916Z,100449.91
2022-09-20T14:51:51.031Z,100458.81
2022-09-20T14:54:37.690Z,100456.28
2022-09-20T14:57:04.209Z,100465.84
2022-09-20T14:59:42.098Z,100459.97
2022-09-20T15:02:10.217Z,100460.81
2022-09-20T15:04:37.892Z,100459.88
2022-09-20T15:07:06.357Z,100463.09
2022-09-20T15:09:33.790Z,100462.03
2022-09-20T15:12:20.745Z,100467.19
2022-09-20T15:14:48.040Z,100465.62
2022-09-20T15:17:17.984Z,100469.09
2022-09-20T15:19:44.938Z,100471.09
2022-09-20T15:22:12.086Z,100469.91
2022-09-20T15:24:38.725Z,100477.06
2022-09-20T15:27:05.084Z,100459.34
2022-09-20T15:29:31.699Z,100451.19
2022-09-20T15:31:57.953Z,100453.59
2022-09-20T15:34:24.347Z,100468.16
2022-09-20T15:36:50.960Z,100482.28
2022-09-20T15:39:17.262Z,100478.00
2022-09-20T15:41:45.111Z,100482.50
2022-09-20T15:44:11.637Z,100476.88
2022-09-20T15:46:37.864Z,100490.06
2022-09-20T15:49:06.557Z,100488.09
2022-09-20T15:51:33.263Z,100487.97
2022-09-20T15:54:06.179Z,100494.87
2022-09-20T15:56:34.746Z,100488.94
2022-09-20T15:59:04.075Z,100493.94
2022-09-20T16:01:33.119Z,100484.09
2022-09-20T16:04:00.246Z,100495.59
2022-09-20T16:06:26.670Z,100485.78
2022-09-20T16:08:53.002Z,100487.44
2022-09-20T16:11:22.906Z,100490.91
2022-09-20T16:13:54.257Z,100481.50
2022-09-20T16:16:21.247Z,100477.59
2022-09-20T16:19:06.204Z,100473.22
2022-09-20T16:21:32.831Z,100482.75
2022-09-20T16:23:59.287Z,100484.94
2022-09-20T16:26:27.057Z,100481.81
2022-09-20T16:28:55.629Z,100492.19
2022-09-20T16:31:40.026Z,100499.00
2022-09-20T16:34:19.454Z,100506.53
2022-09-20T16:36:46.606Z,100490.16
2022-09-20T16:39:14.043Z,100496.34
2022-09-20T16:41:40.672Z,100484.84
2022-09-20T16:44:07.163Z,100493.72
2022-09-20T16:46:37.142Z,100494.41
2022-09-20T16:49:06.751Z,100493.56
2022-09-20T16:51:35.858Z,100499.44
2022-09-20T16:54:13.215Z,100501.28
2022-09-20T16:56:41.745Z,100500.47
2022-09-20T16:59:08.494Z,100494.47
2022-09-20T17:01:36.843Z,100504.81
2022-09-20T17:04:07.249Z,100515.41
2022-09-20T17:06:37.797Z,100501.37
2022-09-20T17:09:05.491Z,100514.34
2022-09-20T17:11:37.434Z,100506.72
2022-09-20T17:14:05.034Z,100522.31
2022-09-20T17:16:34.197Z,100510.81
2022-09-20T17:19:02.919Z,100517.81
2022-09-20T17:21:30.153Z,100522.19
2022-09-20T17:23:58.436Z,100525.78
2022-09-20T17:26:26.708Z,100523.88
2022-09-20T17:28:56.405Z,100506.09
2022-09-20T17:31:25.289Z,100524.94
2022-09-20T17:33:52.002Z,100522.97
2022-09-20T17:36:20.056Z,100523.88
2022-09-20T17:38:46.804Z,100519.50
2022-09-20T17:41:15.550Z,100520.44
2022-09-20T17:43:42.933Z,100528.19
2022-09-20T17:46:13.719Z,100520.12
2022-09-20T17:48:41.248Z,100524.63
2022-09-20T17:51:12.498Z,100520.97
2022-09-20T17:53:39.023Z,100514.13
2022-09-20T17:56:05.839Z,100509.94
2022-09-20T17:58:34.655Z,100515.75
2022-09-20T18:01:20.480Z,100514.91
2022-09-20T18:03:48.802Z,100521.78
2022-09-20T18:06:21.309Z,100539.91
2022-09-20T18:08:50.303Z,100546.00
2022-09-20T18:11:18.526Z,100551.97
2022-09-20T18:13:44.886Z,100560.59
2022-09-20T18:16:13.307Z,100544.75
2022-09-20T18:18:40.942Z,100562.25
2022-09-20T18:21:15.512Z,100559.94
2022-09-20T18:23:43.339Z,100563.91
2022-09-20T18:26:23.297Z,100560.34
2022-09-20T18:29:01.936Z,100568.72
2022-09-20T18:31:36.540Z,100571.44
2022-09-20T18:34:05.408Z,100563.88
2022-09-20T18:36:33.323Z,100568.69
2022-09-20T18:38:59.717Z,100555.47
2022-09-20T18:41:36.933Z,100553.34
2022-09-20T18:44:05.072Z,100565.22
2022-09-20T18:46:31.861Z,100577.50
2022-09-20T18:49:01.372Z,100564.59
2022-09-20T18:51:30.441Z,100573.31
2022-09-20T18:53:58.128Z,100568.87
2022-09-20T18:56:24.569Z,100554.19
2022-09-20T18:58:58.699Z,100573.38
2022-09-20T19:01:40.581Z,100549.44
2022-09-20T19:04:20.456Z,100576.94
2022-09-20T19:07:39.451Z,100590.00
2022-09-20T19:10:05.690Z,100583.00
2022-09-20T19:12:41.691Z,100586.66
2022-09-20T19:15:29.825Z,100587.72
2022-09-20T19:18:25.638Z,100587.06
2022-09-20T19:21:19.901Z,100572.78
2022-09-20T19:24:02.965Z,100590.53
2022-09-20T19:26:31.069Z,100580.38
2022-09-20T19:29:00.080Z,100583.38
2022-09-20T19:31:28.908Z,100584.50
2022-09-20T19:33:57.408Z,100588.06
2022-09-20T19:36:25.593Z,100586.56
2022-09-20T19:38:58.379Z,100580.91
2022-09-20T19:41:47.347Z,100586.88
2022-09-20T19:45:13.658Z,100571.22
2022-09-20T19:47:57.759Z,100574.22
2022-09-20T19:50:33.364Z,100592.47
2022-09-20T19:53:03.953Z,100592.47
2022-09-20T19:55:35.130Z,100590.22
2022-09-20T19:58:02.285Z,100596.50
2022-09-20T20:00:29.978Z,100588.19
2022-09-20T20:02:56.799Z,100589.41
2022-09-20T20:05:25.625Z,100599.75
2022-09-20T20:08:17.832Z,100604.16
2022-09-20T20:11:12.162Z,100601.94
2022-09-20T20:14:03.065Z,100612.47
2022-09-20T20:16:58.125Z,100604.72
2022-09-20T20:19:51.170Z,100610.22
2022-09-20T20:22:33.522Z,100610.63
2022-09-20T20:25:00.026Z,100594.53
2022-09-20T20:27:32.444Z,100610.81
2022-09-20T20:29:58.707Z,100595.75
2022-09-20T20:32:25.785Z,100593.53
2022-09-20T20:34:52.317Z,100602.00
2022-09-20T20:37:18.587Z,100593.53
2022-09-20T20:39:44.855Z,100578.97
2022-09-20T20:42:12.759Z,100602.78
2022-09-20T20:44:39.045Z,100599.03
2022-09-20T20:47:06.504Z,100597.00
2022-09-20T20:49:33.339Z,100614.06
2022-09-20T20:52:04.845Z,100608.25
2022-09-20T20:54:32.203Z,100604.72
2022-09-20T20:56:59.227Z,100607.44
2022-09-20T20:59:25.466Z,100598.38
2022-09-20T21:01:51.706Z,100608.38
2022-09-20T21:04:18.283Z,100610.25
2022-09-20T21:06:44.921Z,100612.19
2022-09-20T21:09:11.967Z,100610.50
2022-09-20T21:11:43.123Z,100617.69
2022-09-20T21:14:10.168Z,100605.00
2022-09-20T21:16:38.599Z,100596.81
2022-09-20T21:19:06.274Z,100619.84
2022-09-20T21:21:38.705Z,100615.50
2022-09-20T21:24:06.851Z,100618.97
2022-09-20T21:26:34.609Z,100596.72
2022-09-20T21:29:05.906Z,100619.28
2022-09-20T21:31:35.021Z,100616.13
2022-09-20T21:34:01.346Z,100614.69
2022-09-20T21:36:30.812Z,100606.37
2022-09-20T21:38:57.372Z,100597.25
2022-09-20T21:41:29.302Z,100620.28
2022-09-20T21:43:57.298Z,100618.78
2022-09-20T21:46:29.188Z,100617.19
2022-09-20T21:49:00.247Z,100613.66
2022-09-20T21:51:29.756Z,100615.69
2022-09-20T21:53:58.025Z,100614.09
2022-09-20T21:56:27.376Z,100613.16
2022-09-20T21:58:54.303Z,100611.09
2022-09-20T22:01:25.144Z,100619.87
2022-09-20T22:03:54.866Z,100619.59
2022-09-20T22:06:22.759Z,100614.50
2022-09-20T22:08:58.944Z,100614.59
2022-09-20T22:11:27.660Z,100618.97
2022-09-20T22:13:54.995Z,100617.00
2022-09-20T22:16:22.899Z,100626.34
2022-09-20T22:18:49.803Z,100625.69
2022-09-20T22:21:33.636Z,100626.69
2022-09-20T22:24:04.648Z,100625.69
2022-09-20T22:26:34.102Z,100617.91
2022-09-20T22:29:00.772Z,100630.00
2022-09-20T22:31:28.903Z,100616.16
2022-09-20T22:33:57.322Z,100629.97
2022-09-20T22:36:29.453Z,100630.31
2022-09-20T22:38:56.156Z,100631.22
2022-09-20T22:41:22.928Z,100630.81
2022-09-20T22:43:49.735Z,100629.41
2022-09-20T22:46:21.280Z,100637.06
2022-09-20T22:48:48.098Z,100630.66
2022-09-20T22:51:25.704Z,100631.84
2022-09-20T22:53:54.709Z,100629.59
2022-09-20T22:56:24.605Z,100640.94
2022-09-20T22:59:04.373Z,100636.03
2022-09-20T23:01:33.202Z,100629.34
2022-09-20T23:04:08.365Z,100632.09
2022-09-20T23:06:37.693Z,100633.19
2022-09-20T23:09:06.143Z,100630.00
2022-09-20T23:11:32.825Z,100645.78
2022-09-20T23:14:00.942Z,100633.66
2022-09-20T23:16:32.757Z,100642.28
2022-09-20T23:19:00.819Z,100615.31
2022-09-20T23:21:27.865Z,100636.69
2022-09-20T23:23:55.939Z,100631.66
2022-09-20T23:26:22.743Z,100621.06
2022-09-20T23:29:04.174Z,100638.19
2022-09-20T23:31:31.870Z,100641.06
2022-09-20T23:33:59.842Z,100648.94
2022-09-20T23:36:28.884Z,100625.31
2022-09-20T23:38:56.942Z,100649.12
2022-09-20T23:41:24.651Z,100648.19
2022-09-20T23:43:51.138Z,100628.66
2022-09-20T23:46:18.982Z,100639.69
2022-09-20T23:48:45.324Z,100644.56
2022-09-20T23:51:14.996Z,100642.75
2022-09-20T23:53:42.616Z,100621.16
2022-09-20T23:56:09.631Z,100639.84
2022-09-20T23:58:37.005Z,100642.69
